This is the latest recevied weather packets stored in our database for station/object AD7ZD. If no packets are shown the sender has not sent any weather packets the latest 10 day(s).
| Time | Temp. | Humidity | Pressure | Rain* | Wind** | Luminosity | Snow |
|---|---|---|---|---|---|---|---|
| 1778049278 | 11.11° C | 78% | 1012.7 hPa | 0 mm | - | 0 W/m² | - |
| 1778048976 | 11.11° C | 78% | 1012.7 hPa | 0 mm | - | 0 W/m² | - |
| 1778048674 | 11.67° C | 75% | 1012.6 hPa | 0 mm | - | 0 W/m² | - |
| 1778048370 | 12.22° C | 73% | 1012.6 hPa | 0 mm | - | 0 W/m² | - |
| 1778048067 | 12.22° C | 73% | 1012.3 hPa | 0 mm | - | 0 W/m² | - |
| 1778047765 | 12.22° C | 72% | 1012.5 hPa | 0 mm | - | 0 W/m² | - |
| 1778047463 | 12.78° C | 70% | 1012.1 hPa | 0 mm | - | 0 W/m² | - |
| 1778047159 | 12.78° C | 66% | 1012.1 hPa | 0 mm | - | 0 W/m² | - |
| 1778046856 | 12.22° C | 70% | 1012.1 hPa | 0 mm | - | 0 W/m² | - |
| 1778046553 | 13.89° C | 61% | 1012 hPa | 0 mm | - | 0 W/m² | - |
| 1778046250 | 13.33° C | 64% | 1011.8 hPa | 0 mm | - | 0 W/m² | - |
| 1778045946 | 12.78° C | 70% | 1011.9 hPa | 0 mm | - | 0 W/m² | - |
| 1778045644 | 12.78° C | 67% | 1011.8 hPa | 0 mm | - | 0 W/m² | - |
| 1778045343 | 13.33° C | 65% | 1011.8 hPa | 0 mm | - | 0 W/m² | - |
| 1778045041 | 12.78° C | 69% | 1011.7 hPa | 0 mm | - | 0 W/m² | - |
| 1778044738 | 13.33° C | 66% | 1011.6 hPa | 0 mm | - | 0 W/m² | - |
| 1778044435 | 13.33° C | 62% | 1011.9 hPa | 0 mm | - | 0 W/m² | - |
| 1778044132 | 13.33° C | 66% | 1012 hPa | 0.51 mm | - | 0 W/m² | - |
| 1778043829 | 12.22° C | 74% | 1012.1 hPa | 2.29 mm | - | 0 W/m² | - |
| 1778043526 | 12.78° C | 69% | 1013.3 hPa | 4.32 mm | - | 0 W/m² | - |
| 1778043223 | 12.78° C | 71% | 1013.7 hPa | 1.78 mm | - | 0 W/m² | - |
| 1778042919 | 16.67° C | 49% | 1013.5 hPa | 0 mm | - | 0 W/m² | - |
| 1778042618 | 16.67° C | 48% | 1012.6 hPa | 0 mm | - | 0 W/m² | - |
| 1778042314 | 16.67° C | 47% | 1011.8 hPa | 0 mm | - | 0 W/m² | - |
| 1778042011 | 16.67° C | 47% | 1011.8 hPa | 0 mm | - | 0 W/m² | - |
* Rain latest hour (hover to see other rain measurements)
** Current wind speed in m/s (hover to see current wind gust speed)